createdAt,value
2017-02-19T00:00:41.439Z,3.5
2017-02-19T00:01:43.888Z,3.5
2017-02-19T00:02:46.852Z,3.5
2017-02-19T00:03:48.963Z,3.5
2017-02-19T00:04:51.916Z,3.5
2017-02-19T00:05:54.901Z,3.5
2017-02-19T00:06:56.848Z,3.5
2017-02-19T00:07:59.296Z,3.4
2017-02-19T00:09:01.754Z,3.4
2017-02-19T00:10:04.743Z,3.4
2017-02-19T00:11:07.226Z,3.4
2017-02-19T00:12:09.689Z,3.4
2017-02-19T00:13:12.139Z,3.5
2017-02-19T00:14:14.425Z,3.4
2017-02-19T00:15:17.211Z,3.5
2017-02-19T00:16:19.675Z,3.5
2017-02-19T00:18:24.877Z,3.4
2017-02-19T00:19:27.331Z,3.4
2017-02-19T00:20:29.790Z,3.4
2017-02-19T00:21:32.266Z,3.4
2017-02-19T00:22:35.227Z,3.3
2017-02-19T00:23:37.686Z,3.3
2017-02-19T00:24:40.675Z,3.3
2017-02-19T00:25:42.639Z,3.3
2017-02-19T00:26:45.090Z,3.3
2017-02-19T00:27:47.541Z,3.3
2017-02-19T00:28:50.508Z,3.3
2017-02-19T00:29:52.966Z,3.3
2017-02-19T00:30:55.416Z,3.3
2017-02-19T00:33:00.780Z,3.3
2017-02-19T00:34:03.267Z,3.2
2017-02-19T00:35:05.728Z,3.3
2017-02-19T00:36:07.850Z,3.3
2017-02-19T00:37:11.192Z,3.3
2017-02-19T00:38:13.141Z,3.3
2017-02-19T00:39:15.601Z,3.3
2017-02-19T00:40:18.561Z,3.3
2017-02-19T00:41:20.861Z,3.2
2017-02-19T00:42:23.318Z,3.3
2017-02-19T00:43:25.775Z,3.3
2017-02-19T00:44:28.739Z,3.2
2017-02-19T00:45:31.199Z,3.1
2017-02-19T00:46:33.656Z,3.1
2017-02-19T00:47:36.463Z,3.1
2017-02-19T00:48:39.272Z,3.1
2017-02-19T00:49:41.223Z,3.2
2017-02-19T00:50:43.676Z,3.2
2017-02-19T00:51:46.126Z,3.2
2017-02-19T00:52:49.079Z,3.2
2017-02-19T00:53:51.534Z,3.2
2017-02-19T00:54:53.985Z,3.2
2017-02-19T00:55:56.443Z,3.1
2017-02-19T00:56:58.908Z,3.1
2017-02-19T00:58:01.864Z,3.1
2017-02-19T00:59:04.323Z,3.1
2017-02-19T01:00:06.615Z,3.1
2017-02-19T01:01:08.895Z,3
2017-02-19T01:02:11.680Z,3
2017-02-19T01:03:14.060Z,3
2017-02-19T01:04:17.017Z,3
2017-02-19T01:05:19.467Z,3
2017-02-19T01:06:21.763Z,3
2017-02-19T01:07:24.721Z,3
2017-02-19T01:08:27.196Z,3
2017-02-19T01:09:29.653Z,3
2017-02-19T01:10:32.104Z,2.9
2017-02-19T01:11:34.578Z,3
2017-02-19T01:12:36.869Z,3
2017-02-19T01:13:39.831Z,3
2017-02-19T01:17:01.753Z,3
2017-02-19T01:17:50.210Z,3
2017-02-19T01:19:55.077Z,3
2017-02-19T01:20:57.524Z,3
2017-02-19T01:21:59.980Z,3
2017-02-19T01:23:02.740Z,3
2017-02-19T01:24:05.208Z,3
2017-02-19T01:25:07.504Z,3
2017-02-19T01:26:10.462Z,3
2017-02-19T01:27:12.913Z,3
2017-02-19T01:28:15.614Z,3
2017-02-19T01:29:18.593Z,2.9
2017-02-19T01:30:20.537Z,2.8
2017-02-19T01:31:22.830Z,2.8
2017-02-19T01:32:25.617Z,2.9
2017-02-19T01:33:28.684Z,2.8
2017-02-19T01:34:30.488Z,2.8
2017-02-19T01:35:32.936Z,2.8
2017-02-19T01:36:35.384Z,2.8
2017-02-19T01:37:38.344Z,2.8
2017-02-19T01:38:41.091Z,2.8
2017-02-19T01:39:42.889Z,2.7
2017-02-19T01:40:45.695Z,2.7
2017-02-19T01:42:51.055Z,2.7
2017-02-19T01:43:53.761Z,2.7
2017-02-19T01:44:55.721Z,2.7
2017-02-19T01:45:58.170Z,2.7
2017-02-19T01:47:01.126Z,2.7
2017-02-19T01:48:03.420Z,2.7
2017-02-19T01:49:06.198Z,2.7
2017-02-19T01:50:08.537Z,2.7
2017-02-19T01:52:13.409Z,2.7
2017-02-19T01:53:16.372Z,2.6
2017-02-19T01:54:19.183Z,2.7
2017-02-19T01:55:21.134Z,2.7
2017-02-19T01:56:23.585Z,2.6
2017-02-19T01:57:26.547Z,2.6
2017-02-19T01:58:28.996Z,2.6
2017-02-19T01:59:31.449Z,2.6
2017-02-19T02:00:33.906Z,2.6
2017-02-19T02:01:36.200Z,2.6
2017-02-19T02:02:39.017Z,2.6
2017-02-19T02:03:41.370Z,2.6
2017-02-19T02:04:43.832Z,2.6
2017-02-19T02:05:46.782Z,2.6
2017-02-19T02:06:49.232Z,2.6
2017-02-19T02:07:51.685Z,2.5
2017-02-19T02:08:54.142Z,2.5
2017-02-19T02:09:56.588Z,2.5
2017-02-19T02:10:59.045Z,2.4
2017-02-19T02:12:02.010Z,2.5
2017-02-19T02:13:04.473Z,2.5
2017-02-19T02:14:06.925Z,2.5
2017-02-19T02:15:09.403Z,2.5
2017-02-19T02:16:11.873Z,2.5
2017-02-19T02:17:14.894Z,2.5
2017-02-19T02:18:17.176Z,2.5
2017-02-19T02:19:19.647Z,2.5
2017-02-19T02:20:22.114Z,2.4
2017-02-19T02:21:24.583Z,2.5
2017-02-19T02:22:27.052Z,2.5
2017-02-19T02:23:29.515Z,2.5
2017-02-19T02:24:31.977Z,2.5
2017-02-19T02:25:34.469Z,2.5
2017-02-19T02:26:37.426Z,2.5
2017-02-19T02:27:39.716Z,2.4
2017-02-19T02:28:42.896Z,2.4
2017-02-19T02:29:44.837Z,2.4
2017-02-19T02:30:47.282Z,2.4
2017-02-19T02:31:49.750Z,2.3
2017-02-19T02:32:52.221Z,2.3
2017-02-19T02:33:55.183Z,2.3
2017-02-19T02:34:57.649Z,2.3
2017-02-19T02:36:00.103Z,2.3
2017-02-19T02:37:02.403Z,2.3
2017-02-19T02:38:04.858Z,2.3
2017-02-19T02:39:07.651Z,2.3
2017-02-19T02:40:09.946Z,2.3
2017-02-19T02:41:12.923Z,2.3
2017-02-19T02:42:15.378Z,2.3
2017-02-19T02:43:17.827Z,2.3
2017-02-19T02:44:20.289Z,2.3
2017-02-19T02:45:22.741Z,2.3
2017-02-19T02:46:25.199Z,2.2
2017-02-19T02:47:27.649Z,2.3
2017-02-19T02:48:29.937Z,2.3
2017-02-19T02:49:32.723Z,2.3
2017-02-19T02:50:35.713Z,2.3
2017-02-19T02:51:37.669Z,2.3
2017-02-19T02:52:40.641Z,2.3
2017-02-19T02:53:43.134Z,2.3
2017-02-19T02:54:45.586Z,2.3
2017-02-19T02:55:48.062Z,2.3
2017-02-19T02:56:51.045Z,2.3
2017-02-19T02:57:52.989Z,2.3
2017-02-19T02:58:55.272Z,2.3
2017-02-19T02:59:58.226Z,2.3
2017-02-19T03:01:00.683Z,2.3
2017-02-19T03:02:02.971Z,2.3
2017-02-19T03:03:05.932Z,2.3
2017-02-19T03:05:10.793Z,2.3
2017-02-19T03:06:13.289Z,2.3
2017-02-19T03:07:15.749Z,2.3
2017-02-19T03:08:18.205Z,2.3
2017-02-19T03:09:20.692Z,2.3
2017-02-19T03:10:23.142Z,2.3
2017-02-19T03:11:26.097Z,2.3
2017-02-19T03:12:28.552Z,2.3
2017-02-19T03:13:31.015Z,2.3
2017-02-19T03:14:33.487Z,2.3
2017-02-19T03:15:35.932Z,2.2
2017-02-19T03:16:38.390Z,2.3
2017-02-19T03:17:41.186Z,2.3
2017-02-19T03:18:43.632Z,2.3
2017-02-19T03:19:46.091Z,2.3
2017-02-19T03:20:48.542Z,2.3
2017-02-19T03:21:50.827Z,2.3
2017-02-19T03:22:53.782Z,2.2
2017-02-19T03:23:56.242Z,2.2
2017-02-19T03:24:58.694Z,2.2
2017-02-19T03:26:01.146Z,2.2
2017-02-19T03:27:03.608Z,2.2
2017-02-19T03:28:06.058Z,2.2
2017-02-19T03:29:08.674Z,2.2
2017-02-19T03:30:11.130Z,2.2
2017-02-19T03:31:13.764Z,2.1
2017-02-19T03:32:16.383Z,2.2
2017-02-19T03:33:18.880Z,2.2
2017-02-19T03:34:21.338Z,2.2
2017-02-19T03:35:23.806Z,2.1
2017-02-19T03:36:26.784Z,2.1
2017-02-19T03:37:29.247Z,2.1
2017-02-19T03:38:31.699Z,2.1
2017-02-19T03:39:34.196Z,2.1
2017-02-19T03:40:36.499Z,2.1
2017-02-19T03:41:38.948Z,2.1
2017-02-19T03:42:41.402Z,2.1
2017-02-19T03:43:44.378Z,2.1
2017-02-19T03:44:46.842Z,2.1
2017-02-19T03:45:49.292Z,2.1
2017-02-19T03:46:51.575Z,2.1
2017-02-19T03:47:54.029Z,2.1
2017-02-19T03:48:56.994Z,2.1
2017-02-19T03:49:59.307Z,2.1
2017-02-19T03:51:01.771Z,2
2017-02-19T03:52:04.055Z,2
2017-02-19T03:53:07.029Z,2
2017-02-19T03:54:09.478Z,2
2017-02-19T03:55:11.779Z,2.1
2017-02-19T03:56:14.520Z,2
2017-02-19T03:57:16.649Z,2
2017-02-19T03:58:19.602Z,2
2017-02-19T03:59:22.059Z,2
2017-02-19T04:00:24.516Z,2
2017-02-19T04:01:26.966Z,2
2017-02-19T04:02:29.428Z,2
2017-02-19T04:03:31.883Z,2
2017-02-19T04:04:34.346Z,2
2017-02-19T04:05:37.308Z,2
2017-02-19T04:06:39.766Z,2
2017-02-19T04:07:42.220Z,1.9
2017-02-19T04:09:47.076Z,1.9
2017-02-19T04:10:49.571Z,1.9
2017-02-19T04:11:52.037Z,1.9
2017-02-19T04:12:54.990Z,1.9
2017-02-19T04:13:57.445Z,1.9
2017-02-19T04:14:59.897Z,1.9
2017-02-19T04:16:02.371Z,1.9
2017-02-19T04:17:04.828Z,1.9
2017-02-19T04:18:06.946Z,1.8
2017-02-19T04:19:09.732Z,1.8
2017-02-19T04:20:12.035Z,1.8
2017-02-19T04:21:14.999Z,1.8
2017-02-19T04:22:17.455Z,1.8
2017-02-19T04:23:19.918Z,1.8
2017-02-19T04:24:22.368Z,1.8
2017-02-19T04:25:25.162Z,1.8
2017-02-19T04:27:30.027Z,1.8
2017-02-19T04:28:32.495Z,1.8
2017-02-19T04:29:34.975Z,1.8
2017-02-19T04:30:37.420Z,1.8
2017-02-19T04:31:39.886Z,1.8
2017-02-19T04:32:42.849Z,1.8
2017-02-19T04:33:45.299Z,1.8
2017-02-19T04:34:47.757Z,1.7
2017-02-19T04:35:50.733Z,1.8
2017-02-19T04:36:52.682Z,1.8
2017-02-19T04:37:55.133Z,1.8
2017-02-19T04:38:57.588Z,1.8
2017-02-19T04:40:00.047Z,1.8
2017-02-19T04:41:03.020Z,1.8
2017-02-19T04:42:05.475Z,1.7
2017-02-19T04:43:07.929Z,1.7
2017-02-19T04:44:10.390Z,1.8
2017-02-19T04:45:12.856Z,1.8
2017-02-19T04:46:15.310Z,1.8
2017-02-19T04:47:17.772Z,1.7
2017-02-19T04:48:20.572Z,1.7
2017-02-19T04:49:23.027Z,1.7
2017-02-19T04:50:25.482Z,1.7
2017-02-19T04:51:27.930Z,1.6
2017-02-19T04:52:30.430Z,1.6
2017-02-19T04:53:32.896Z,1.7
2017-02-19T04:54:35.346Z,1.7
2017-02-19T04:55:37.803Z,1.6
2017-02-19T04:56:40.771Z,1.6
2017-02-19T04:57:43.063Z,1.6
2017-02-19T04:59:47.917Z,1.6
2017-02-19T05:00:50.401Z,1.6
2017-02-19T05:01:53.908Z,1.6
2017-02-19T05:02:55.867Z,1.6
2017-02-19T05:03:58.147Z,1.6
2017-02-19T05:05:00.597Z,1.6
2017-02-19T05:06:03.051Z,1.6
2017-02-19T05:07:05.500Z,1.6
2017-02-19T05:08:08.460Z,1.5
2017-02-19T05:09:10.759Z,1.6
2017-02-19T05:10:13.053Z,1.6
2017-02-19T05:11:15.842Z,1.6
2017-02-19T05:12:18.331Z,1.5
2017-02-19T05:13:20.798Z,1.5
2017-02-19T05:14:23.275Z,1.5
2017-02-19T05:15:25.725Z,1.5
2017-02-19T05:16:28.183Z,1.5
2017-02-19T05:17:30.644Z,1.4
2017-02-19T05:18:33.124Z,1.5
2017-02-19T05:19:36.090Z,1.5
2017-02-19T05:20:38.542Z,1.5
2017-02-19T05:21:40.998Z,1.5
2017-02-19T05:22:43.280Z,1.5
2017-02-19T05:23:45.735Z,1.5
2017-02-19T05:24:48.687Z,1.5
2017-02-19T05:25:51.156Z,1.5
2017-02-19T05:26:53.604Z,1.5
2017-02-19T05:27:56.053Z,1.4
2017-02-19T05:28:58.508Z,1.4
2017-02-19T05:30:00.962Z,1.5
2017-02-19T05:31:03.417Z,1.4
2017-02-19T05:32:06.235Z,1.3
2017-02-19T05:33:08.350Z,1.3
2017-02-19T05:34:11.343Z,1.3
2017-02-19T05:35:13.804Z,1.3
2017-02-19T05:36:16.253Z,1.3
2017-02-19T05:37:18.534Z,1.4
2017-02-19T05:38:21.000Z,1.4
2017-02-19T05:39:23.480Z,1.4
2017-02-19T05:40:25.945Z,1.4
2017-02-19T05:41:28.900Z,1.4
2017-02-19T05:42:31.352Z,1.4
2017-02-19T05:43:33.802Z,1.4
2017-02-19T05:44:36.252Z,1.4
2017-02-19T05:45:38.707Z,1.4
2017-02-19T05:46:41.160Z,1.4
2017-02-19T05:47:43.453Z,1.4
2017-02-19T05:48:46.424Z,1.3
2017-02-19T05:49:48.909Z,1.4
2017-02-19T05:51:53.782Z,1.3
2017-02-19T05:52:56.237Z,1.3
2017-02-19T05:53:58.702Z,1.3
2017-02-19T05:55:01.167Z,1.3
2017-02-19T05:56:03.470Z,1.3
2017-02-19T05:57:06.424Z,1.3
2017-02-19T05:58:08.879Z,1.3
2017-02-19T05:59:11.334Z,1.3
2017-02-19T06:00:13.452Z,1.3
2017-02-19T06:01:16.413Z,1.3
2017-02-19T06:02:18.860Z,1.3
2017-02-19T06:03:21.837Z,1.3
2017-02-19T06:04:23.614Z,1.3
2017-02-19T06:05:26.571Z,1.3
2017-02-19T06:06:29.035Z,1.3
2017-02-19T06:07:31.493Z,1.3
2017-02-19T06:08:34.476Z,1.3
2017-02-19T06:09:36.433Z,1.3
2017-02-19T06:10:39.445Z,1.3
2017-02-19T06:11:41.422Z,1.2
2017-02-19T06:12:43.892Z,1.2
2017-02-19T06:14:48.756Z,1.3
2017-02-19T06:15:51.719Z,1.2
2017-02-19T06:16:54.176Z,1.2
2017-02-19T06:17:56.626Z,1.2
2017-02-19T06:18:59.102Z,1.2
2017-02-19T06:20:01.590Z,1.1
2017-02-19T06:21:04.047Z,1.1
2017-02-19T06:22:07.028Z,1.1
2017-02-19T06:23:08.989Z,1.1
2017-02-19T06:24:11.453Z,1.1
2017-02-19T06:25:13.917Z,1.1
2017-02-19T06:26:16.382Z,1.1
2017-02-19T06:27:19.334Z,1.1
2017-02-19T06:28:21.798Z,1.1
2017-02-19T06:29:24.260Z,1.2
2017-02-19T06:30:26.712Z,1.2
2017-02-19T06:31:29.193Z,1.1
2017-02-19T06:32:31.647Z,1.1
2017-02-19T06:33:34.116Z,1.1
2017-02-19T06:34:36.577Z,1.2
2017-02-19T06:35:39.031Z,1.2
2017-02-19T06:36:41.501Z,1.1
2017-02-19T06:37:43.795Z,1.1
2017-02-19T06:38:46.759Z,1.1
2017-02-19T06:39:49.206Z,1.1
2017-02-19T06:40:51.655Z,1.1
2017-02-19T06:41:54.116Z,1.1
2017-02-19T06:42:56.577Z,1.1
2017-02-19T06:43:59.043Z,1.1
2017-02-19T06:45:01.523Z,1.1
2017-02-19T06:46:04.499Z,1.2
2017-02-19T06:47:06.960Z,1.2
2017-02-19T06:48:09.428Z,1.2
2017-02-19T06:49:11.885Z,1.2
2017-02-19T06:50:14.168Z,1.3
2017-02-19T06:51:16.638Z,1.3
2017-02-19T06:52:19.461Z,1.3
2017-02-19T06:53:21.924Z,1.3
2017-02-19T06:54:24.387Z,1.3
2017-02-19T06:55:26.850Z,1.3
2017-02-19T06:56:29.302Z,1.3
2017-02-19T06:57:31.758Z,1.4
2017-02-19T06:58:34.218Z,1.3
2017-02-19T06:59:36.699Z,1.4
2017-02-19T07:01:42.063Z,1.4
2017-02-19T07:02:44.181Z,1.4
2017-02-19T07:04:50.077Z,1.4
2017-02-19T07:05:52.047Z,1.5
2017-02-19T07:06:54.523Z,1.5
2017-02-19T07:07:56.976Z,1.4
2017-02-19T07:08:59.435Z,1.5
2017-02-19T07:10:01.884Z,1.5
2017-02-19T07:11:04.677Z,1.5
2017-02-19T07:12:07.147Z,1.5
2017-02-19T07:13:09.627Z,1.5
2017-02-19T07:15:15.042Z,1.6
2017-02-19T07:16:17.010Z,1.6
2017-02-19T07:18:22.377Z,1.6
2017-02-19T07:19:24.854Z,1.6
2017-02-19T07:20:27.305Z,1.6
2017-02-19T07:21:29.767Z,1.6
2017-02-19T07:22:32.233Z,1.6
2017-02-19T07:23:34.684Z,1.6
2017-02-19T07:24:37.643Z,1.7
2017-02-19T07:25:40.128Z,1.7
2017-02-19T07:26:42.584Z,1.7
2017-02-19T07:27:44.867Z,1.8
2017-02-19T07:28:47.342Z,1.8
2017-02-19T07:29:50.299Z,1.8
2017-02-19T07:33:59.970Z,1.8
2017-02-19T07:35:02.924Z,1.8
2017-02-19T07:36:05.380Z,1.8
2017-02-19T07:37:07.838Z,1.8
2017-02-19T07:38:10.322Z,1.8
2017-02-19T07:39:12.780Z,1.9
2017-02-19T07:40:15.077Z,1.9
2017-02-19T07:41:17.881Z,1.9
2017-02-19T07:42:20.339Z,1.9
2017-02-19T07:43:22.791Z,1.9
2017-02-19T07:44:25.747Z,1.9
2017-02-19T07:45:28.232Z,2
2017-02-19T07:47:33.087Z,2
2017-02-19T07:48:35.536Z,2
2017-02-19T07:49:37.990Z,2
2017-02-19T07:50:40.948Z,2
2017-02-19T07:51:43.232Z,2
2017-02-19T07:52:45.686Z,2
2017-02-19T07:54:51.063Z,2
2017-02-19T07:56:55.926Z,2
2017-02-19T07:57:58.382Z,2
2017-02-19T07:59:01.354Z,2
2017-02-19T08:00:03.642Z,2.1
2017-02-19T08:01:06.106Z,2.1
2017-02-19T08:02:08.390Z,2.1
2017-02-19T08:03:10.921Z,2.1
2017-02-19T08:04:13.715Z,2.1
2017-02-19T08:05:16.508Z,2.1
2017-02-19T08:06:18.959Z,2.1
2017-02-19T08:07:21.410Z,2.2
2017-02-19T08:08:23.860Z,2.1
2017-02-19T08:09:26.817Z,2.2
2017-02-19T08:10:29.288Z,2.2
2017-02-19T08:11:31.765Z,2.2
2017-02-19T08:12:34.232Z,2.2
2017-02-19T08:13:36.516Z,2.2
2017-02-19T08:14:39.468Z,2.3
2017-02-19T08:15:41.913Z,2.3
2017-02-19T08:16:44.370Z,2.3
2017-02-19T08:17:47.180Z,2.3
2017-02-19T08:18:49.634Z,2.3
2017-02-19T08:19:52.083Z,2.3
2017-02-19T08:20:54.537Z,2.3
2017-02-19T08:21:56.988Z,2.3
2017-02-19T08:22:59.942Z,2.3
2017-02-19T08:24:02.431Z,2.3
2017-02-19T08:25:04.907Z,2.3
2017-02-19T08:26:07.897Z,2.3
2017-02-19T08:31:20.155Z,2.4
2017-02-19T08:32:22.617Z,2.5
2017-02-19T08:33:25.087Z,2.5
2017-02-19T08:34:27.897Z,2.5
2017-02-19T08:35:30.348Z,2.5
2017-02-19T08:36:32.809Z,2.5
2017-02-19T08:40:43.488Z,2.5
2017-02-19T08:41:45.945Z,2.5
2017-02-19T08:44:53.725Z,2.6
2017-02-19T08:51:08.561Z,2.5
2017-02-19T08:52:12.061Z,2.5
2017-02-19T08:54:16.414Z,2.5
2017-02-19T08:55:18.870Z,2.6
2017-02-19T08:56:21.827Z,2.6
2017-02-19T08:58:26.530Z,2.5
2017-02-19T08:59:29.493Z,2.5
2017-02-19T09:00:31.789Z,2.5
2017-02-19T09:01:34.252Z,2.5
2017-02-19T09:03:39.630Z,2.5
2017-02-19T09:04:42.445Z,2.4
2017-02-19T09:05:44.895Z,2.5
2017-02-19T09:06:47.347Z,2.5
2017-02-19T09:07:49.801Z,2.5
2017-02-19T09:08:52.248Z,2.5
2017-02-19T09:10:57.615Z,2.6
2017-02-19T09:15:07.791Z,2.6
2017-02-19T09:16:10.575Z,2.6
2017-02-19T09:17:13.024Z,2.7
2017-02-19T09:19:17.885Z,2.6
2017-02-19T09:20:20.669Z,2.6
2017-02-19T09:21:23.122Z,2.6
2017-02-19T09:24:30.918Z,2.6
2017-02-19T09:25:33.704Z,2.6
2017-02-19T09:27:38.590Z,2.6
2017-02-19T09:32:51.699Z,2.6
2017-02-19T09:33:54.152Z,2.6
2017-02-19T09:38:04.357Z,2.6
2017-02-19T09:41:12.131Z,2.6
2017-02-19T09:45:22.653Z,2.6
2017-02-19T09:46:25.130Z,2.7
2017-02-19T09:47:27.581Z,2.6
2017-02-19T09:48:30.559Z,2.6
2017-02-19T09:49:32.511Z,2.7
2017-02-19T09:50:35.484Z,2.7
2017-02-19T09:51:37.949Z,2.7
2017-02-19T09:52:40.399Z,2.7
2017-02-19T09:53:43.230Z,2.7
2017-02-19T09:54:45.701Z,2.7
2017-02-19T09:55:48.159Z,2.7
2017-02-19T09:56:50.610Z,2.7
2017-02-19T09:57:53.064Z,2.7
2017-02-19T09:58:56.544Z,2.7
2017-02-19T10:01:00.894Z,2.8
2017-02-19T10:02:03.892Z,2.8
2017-02-19T10:03:06.352Z,2.8
2017-02-19T10:04:08.815Z,2.8
2017-02-19T10:05:11.263Z,2.8
2017-02-19T10:08:19.027Z,2.8
2017-02-19T10:09:21.537Z,2.9
2017-02-19T10:10:24.003Z,2.9
2017-02-19T10:11:27.491Z,2.8
2017-02-19T10:13:31.757Z,2.8
2017-02-19T10:17:42.270Z,2.9
2017-02-19T11:11:56.073Z,3.3
2017-02-19T11:14:01.439Z,3.3
2017-02-19T11:15:03.403Z,3.4
2017-02-19T11:17:09.099Z,3.4
2017-02-19T11:18:11.572Z,3.4
2017-02-19T11:24:26.901Z,3.5
2017-02-19T11:25:29.863Z,3.5
2017-02-19T11:30:42.453Z,3.5
2017-02-19T11:32:47.677Z,3.5
2017-02-19T11:33:50.133Z,3.5
2017-02-19T11:34:53.624Z,3.5
2017-02-19T11:35:55.600Z,3.5
2017-02-19T11:36:58.050Z,3.5
2017-02-19T11:38:00.528Z,3.5
2017-02-19T11:39:03.484Z,3.5
2017-02-19T11:40:05.930Z,3.5
2017-02-19T11:41:08.388Z,3.6
2017-02-19T11:42:10.848Z,3.6
2017-02-19T11:43:13.806Z,3.6
2017-02-19T11:44:16.262Z,3.6
2017-02-19T11:45:18.731Z,3.6
2017-02-19T11:46:21.180Z,3.6
2017-02-19T11:47:24.144Z,3.6
2017-02-19T11:48:26.436Z,3.7
2017-02-19T11:49:28.890Z,3.6
2017-02-19T11:50:31.536Z,3.6
2017-02-19T11:51:34.508Z,3.8
2017-02-19T11:52:36.849Z,3.8
2017-02-19T11:53:39.311Z,3.8
2017-02-19T11:54:42.269Z,3.7
2017-02-19T11:55:44.720Z,3.7
2017-02-19T11:56:47.185Z,3.7
2017-02-19T11:57:49.649Z,3.7
2017-02-19T11:58:52.611Z,3.7
2017-02-19T11:59:54.907Z,3.7
2017-02-19T12:00:57.372Z,3.8
2017-02-19T12:02:00.328Z,3.8
2017-02-19T12:03:02.792Z,3.8
2017-02-19T12:04:05.251Z,3.9
2017-02-19T12:05:07.729Z,3.9
2017-02-19T12:06:10.701Z,3.9
2017-02-19T12:07:13.154Z,3.9
2017-02-19T12:08:15.645Z,3.9
2017-02-19T12:09:17.944Z,3.9
2017-02-19T12:11:23.306Z,4
2017-02-19T12:13:28.504Z,4
2017-02-19T12:16:36.801Z,4
2017-02-19T12:17:38.579Z,4
2017-02-19T12:21:49.093Z,4.1
2017-02-19T12:25:59.783Z,4.1
2017-02-19T12:27:02.069Z,4.1
2017-02-19T12:32:15.153Z,4
2017-02-19T12:33:17.437Z,4.1
2017-02-19T12:34:20.404Z,4.1
2017-02-19T12:36:25.794Z,4.1
2017-02-19T12:37:28.261Z,4.1
2017-02-19T12:38:30.724Z,4.1
2017-02-19T12:39:33.672Z,4.1
2017-02-19T12:41:38.536Z,4.1
2017-02-19T12:46:51.454Z,4.2
2017-02-19T12:48:56.847Z,4.2
2017-02-19T12:53:07.033Z,4.3
2017-02-19T13:10:51.017Z,4.3
2017-02-19T13:12:56.394Z,4.4
2017-02-19T13:15:01.600Z,4.4
2017-02-19T13:16:04.066Z,4.4
2017-02-19T13:17:06.516Z,4.4
2017-02-19T13:18:09.471Z,4.4
2017-02-19T13:21:17.243Z,4.5
2017-02-19T13:22:19.692Z,4.5
2017-02-19T13:23:22.146Z,4.4
2017-02-19T13:27:32.831Z,4.5
2017-02-19T13:28:35.122Z,4.5
2017-02-19T13:29:37.908Z,4.5
2017-02-19T13:30:40.359Z,4.5
2017-02-19T13:31:43.322Z,4.5
2017-02-19T13:32:45.772Z,4.5
2017-02-19T13:33:48.228Z,4.5
2017-02-19T13:34:50.689Z,4.5
2017-02-19T13:39:01.383Z,4.5
2017-02-19T13:42:08.987Z,4.5
2017-02-19T13:43:11.281Z,4.5
2017-02-19T13:44:14.765Z,4.5
2017-02-19T13:48:24.464Z,4.6
2017-02-19T13:49:27.959Z,4.6
2017-02-19T13:50:29.909Z,4.6
2017-02-19T13:51:32.359Z,4.6
2017-02-19T13:52:34.823Z,4.7
2017-02-19T13:53:38.318Z,4.6
2017-02-19T13:55:42.513Z,4.6
2017-02-19T13:56:45.470Z,4.6
2017-02-19T13:57:47.925Z,4.6
2017-02-19T14:00:55.708Z,4.7
2017-02-19T14:04:03.489Z,4.6
2017-02-19T14:05:06.291Z,4.6
2017-02-19T14:06:08.416Z,4.6
2017-02-19T14:08:13.449Z,4.7
2017-02-19T14:09:16.416Z,4.7
2017-02-19T14:10:19.387Z,4.8
2017-02-19T14:12:24.254Z,4.8
2017-02-19T14:14:29.612Z,4.8
2017-02-19T14:15:32.610Z,4.8
2017-02-19T14:16:34.555Z,4.8
2017-02-19T14:17:37.520Z,4.8
2017-02-19T14:18:39.972Z,4.8
2017-02-19T14:19:42.448Z,4.8
2017-02-19T14:20:44.915Z,4.9
2017-02-19T14:21:47.894Z,4.8
2017-02-19T14:22:50.363Z,4.8
2017-02-19T14:27:00.545Z,4.8
2017-02-19T14:28:03.494Z,4.8
2017-02-19T14:30:08.185Z,4.9
2017-02-19T14:31:11.157Z,4.8
2017-02-19T14:32:13.613Z,4.8
2017-02-19T14:33:16.067Z,4.8
2017-02-19T14:34:18.895Z,4.8
2017-02-19T14:36:24.259Z,4.9
2017-02-19T14:37:26.728Z,4.8
2017-02-19T14:38:29.188Z,4.9
2017-02-19T14:39:31.809Z,4.9
2017-02-19T14:40:34.598Z,4.9
2017-02-19T14:41:37.051Z,4.9
2017-02-19T14:42:39.338Z,4.9
2017-02-19T14:43:42.317Z,4.9
2017-02-19T14:44:44.802Z,4.9
2017-02-19T14:45:47.595Z,4.9
2017-02-19T14:46:50.079Z,5
2017-02-19T14:47:52.548Z,4.9
2017-02-19T14:48:55.021Z,4.9
2017-02-19T14:49:57.978Z,5
2017-02-19T14:51:00.431Z,5
2017-02-19T14:52:02.899Z,5
2017-02-19T14:53:05.690Z,5
2017-02-19T14:54:07.878Z,5
2017-02-19T14:55:10.849Z,5
2017-02-19T14:56:12.978Z,5
2017-02-19T14:57:16.794Z,5
2017-02-19T14:58:18.746Z,5
2017-02-19T14:59:21.211Z,5
2017-02-19T15:00:23.684Z,5
2017-02-19T15:01:26.653Z,5
2017-02-19T15:02:29.106Z,5
2017-02-19T15:03:31.392Z,5
2017-02-19T15:04:34.191Z,5
2017-02-19T15:05:36.650Z,5
2017-02-19T15:06:39.612Z,5
2017-02-19T15:07:42.066Z,5
2017-02-19T15:08:44.529Z,5
2017-02-19T15:09:46.994Z,5
2017-02-19T15:10:49.955Z,5
2017-02-19T15:11:52.276Z,5
2017-02-19T15:12:55.243Z,5
2017-02-19T15:15:00.664Z,5
2017-02-19T15:16:02.620Z,5.1
2017-02-19T15:17:05.591Z,5
2017-02-19T15:18:07.893Z,5
2017-02-19T15:19:10.185Z,5
2017-02-19T15:20:13.137Z,5
2017-02-19T15:21:15.597Z,5
2017-02-19T15:22:18.404Z,5
2017-02-19T15:23:20.872Z,5
2017-02-19T15:24:23.325Z,5
2017-02-19T15:25:26.293Z,5
2017-02-19T15:26:28.756Z,5
2017-02-19T15:28:34.114Z,5.1
2017-02-19T15:30:39.496Z,5.1
2017-02-19T15:31:41.961Z,5.1
2017-02-19T15:32:44.419Z,5.1
2017-02-19T15:33:46.885Z,5.1
2017-02-19T15:34:49.361Z,5.1
2017-02-19T15:35:52.320Z,5.1
2017-02-19T15:36:54.790Z,5.1
2017-02-19T15:37:57.252Z,5.1
2017-02-19T15:38:59.730Z,5.1
2017-02-19T15:40:02.517Z,5.1
2017-02-19T15:41:04.973Z,5.1
2017-02-19T15:42:07.266Z,5.1
2017-02-19T15:43:10.253Z,5.1
2017-02-19T15:44:12.703Z,5.1
2017-02-19T15:45:15.491Z,5.1
2017-02-19T15:46:17.944Z,5.1
2017-02-19T15:47:20.916Z,5.1
2017-02-19T15:48:23.211Z,5.1
2017-02-19T15:49:25.674Z,5.1
2017-02-19T15:50:28.632Z,5.1
2017-02-19T15:51:31.083Z,5.1
2017-02-19T15:52:33.560Z,5.1
2017-02-19T15:53:36.011Z,5.1
2017-02-19T15:54:38.973Z,5.1
2017-02-19T15:55:41.440Z,5.1
2017-02-19T15:56:43.718Z,5.1
2017-02-19T15:57:46.679Z,5.1
2017-02-19T15:58:49.142Z,5.1
2017-02-19T15:59:51.611Z,5.1
2017-02-19T16:00:54.410Z,5.1
2017-02-19T16:01:56.878Z,5.1
2017-02-19T16:02:59.333Z,5.1
2017-02-19T16:04:02.130Z,5.1
2017-02-19T16:05:04.588Z,5.1
2017-02-19T16:06:07.385Z,5.1
2017-02-19T16:07:09.676Z,5.1
2017-02-19T16:08:12.629Z,5.1
2017-02-19T16:09:14.911Z,5.1
2017-02-19T16:11:20.272Z,5.1
2017-02-19T16:12:22.734Z,5.1
2017-02-19T16:13:25.691Z,5.1
2017-02-19T16:14:28.152Z,5.2
2017-02-19T16:15:30.617Z,5.1
2017-02-19T16:16:33.075Z,5.1
2017-02-19T16:17:36.067Z,5.1
2017-02-19T16:18:38.516Z,5.1
2017-02-19T16:19:40.971Z,5.1
2017-02-19T16:21:46.352Z,5.1
2017-02-19T16:22:48.842Z,5.2
2017-02-19T16:23:51.128Z,5.2
2017-02-19T16:24:54.106Z,5.2
2017-02-19T16:25:57.096Z,5.2
2017-02-19T16:26:59.056Z,5.1
2017-02-19T16:28:02.012Z,5.1
2017-02-19T16:29:04.472Z,5.2
2017-02-19T16:30:06.960Z,5.2
2017-02-19T16:31:09.755Z,5.2
2017-02-19T16:32:12.041Z,5.2
2017-02-19T16:33:14.834Z,5.2
2017-02-19T16:34:17.300Z,5.2
2017-02-19T16:36:22.662Z,5.2
2017-02-19T16:37:25.118Z,5.2
2017-02-19T16:38:27.574Z,5.2
2017-02-19T16:39:31.088Z,5.2
2017-02-19T16:40:33.036Z,5.2
2017-02-19T16:41:35.527Z,5.2
2017-02-19T16:42:37.983Z,5.2
2017-02-19T16:44:43.357Z,5.2
2017-02-19T16:45:45.811Z,5.2
2017-02-19T16:46:48.268Z,5.2
2017-02-19T16:47:51.219Z,5.2
2017-02-19T16:48:53.689Z,5.2
2017-02-19T16:49:56.159Z,5.2
2017-02-19T16:53:03.958Z,5.2
2017-02-19T16:54:06.435Z,5.2
2017-02-19T16:55:09.397Z,5.2
2017-02-19T16:56:11.858Z,5.2
2017-02-19T16:57:14.328Z,5.2
2017-02-19T16:58:16.790Z,5.2
2017-02-19T16:59:19.743Z,5.2
2017-02-19T17:00:22.217Z,5.2
2017-02-19T17:01:24.674Z,5.2
2017-02-19T17:02:27.149Z,5.2
2017-02-19T17:03:29.611Z,5.2
2017-02-19T17:04:32.401Z,5.2
2017-02-19T17:05:34.881Z,5.2
2017-02-19T17:06:37.668Z,5.2
2017-02-19T17:07:39.961Z,5.2
2017-02-19T17:08:42.927Z,5.2
2017-02-19T17:10:47.781Z,5.2
2017-02-19T17:11:50.752Z,5.2
2017-02-19T17:12:53.731Z,5.2
2017-02-19T17:13:55.685Z,5.2
2017-02-19T17:14:58.136Z,5.2
2017-02-19T17:17:03.529Z,5.2
2017-02-19T17:18:05.999Z,5.2
2017-02-19T17:19:08.297Z,5.2
2017-02-19T17:20:11.249Z,5.2
2017-02-19T17:21:13.699Z,5.2
2017-02-19T17:22:16.651Z,5.2
2017-02-19T17:23:19.104Z,5.2
2017-02-19T17:24:21.574Z,5.2
2017-02-19T17:25:24.023Z,5.2
2017-02-19T17:26:26.974Z,5.2
2017-02-19T17:27:29.441Z,5.2
2017-02-19T17:28:31.893Z,5.2
2017-02-19T17:29:34.360Z,5.2
2017-02-19T17:30:38.380Z,5.2
2017-02-19T17:33:44.642Z,5.3
2017-02-19T17:34:47.602Z,5.2
2017-02-19T17:35:50.060Z,5.2
2017-02-19T17:36:52.534Z,5.2
2017-02-19T17:37:54.820Z,5.2
2017-02-19T17:38:57.613Z,5.2
2017-02-19T17:40:00.085Z,5.2
2017-02-19T17:41:03.042Z,5.2
2017-02-19T17:42:05.336Z,5.2
2017-02-19T17:43:08.307Z,5.2
2017-02-19T17:44:10.599Z,5.2
2017-02-19T17:45:13.052Z,5.2
2017-02-19T17:46:16.006Z,5.2
2017-02-19T17:47:18.479Z,5.1
2017-02-19T17:48:20.944Z,5.2
2017-02-19T17:49:23.733Z,5.2
2017-02-19T17:50:26.185Z,5.1
2017-02-19T17:52:31.548Z,5.2
2017-02-19T17:54:36.417Z,5.1
2017-02-19T17:57:44.024Z,5.1
2017-02-19T17:58:47.000Z,5.1
2017-02-19T17:59:49.447Z,5.2
2017-02-19T18:00:52.422Z,5.2
2017-02-19T18:13:22.696Z,5.2
2017-02-19T18:14:25.656Z,5.2
2017-02-19T18:15:27.940Z,5.2
2017-02-19T18:17:33.306Z,5.2
2017-02-19T18:18:35.770Z,5.2
2017-02-19T18:22:45.955Z,5.2
2017-02-19T18:29:01.611Z,5.1
2017-02-19T18:30:03.796Z,5.1
2017-02-19T18:33:12.075Z,5.1
2017-02-19T18:34:14.365Z,5.1
2017-02-19T18:36:19.730Z,5.2